createdAt,value
2022-11-03T00:02:18.716Z,52.59
2022-11-03T00:04:46.985Z,52.57
2022-11-03T00:07:23.586Z,52.68
2022-11-03T00:09:51.692Z,52.42
2022-11-03T00:12:19.750Z,52.30
2022-11-03T00:14:47.954Z,52.63
2022-11-03T00:17:15.941Z,52.53
2022-11-03T00:19:43.998Z,52.41
2022-11-03T00:22:12.106Z,52.70
2022-11-03T00:24:40.164Z,52.61
2022-11-03T00:27:08.992Z,52.56
2022-11-03T00:29:37.050Z,52.62
2022-11-03T00:32:05.611Z,52.53
2022-11-03T00:34:33.696Z,52.54
2022-11-03T00:37:02.015Z,52.72
2022-11-03T00:39:30.013Z,52.88
2022-11-03T00:41:58.085Z,52.88
2022-11-03T00:44:27.583Z,52.85
2022-11-03T00:46:56.385Z,52.57
2022-11-03T00:49:24.510Z,52.70
2022-11-03T00:53:14.276Z,52.73
2022-11-03T00:55:42.497Z,52.87
2022-11-03T00:58:10.557Z,53.00
2022-11-03T01:00:39.021Z,52.66
2022-11-03T01:03:07.850Z,52.62
2022-11-03T01:06:02.069Z,52.66
2022-11-03T01:08:34.211Z,52.75
2022-11-03T01:11:45.970Z,52.92
2022-11-03T01:14:16.693Z,52.99
2022-11-03T01:16:44.918Z,53.00
2022-11-03T01:19:12.976Z,52.92
2022-11-03T01:21:41.085Z,52.92
2022-11-03T01:24:09.147Z,53.14
2022-11-03T01:26:37.247Z,52.87
2022-11-03T01:29:05.786Z,53.01
2022-11-03T01:31:33.896Z,53.27
2022-11-03T01:34:01.956Z,53.04
2022-11-03T01:36:30.180Z,53.07
2022-11-03T01:38:58.234Z,53.36
2022-11-03T01:41:28.626Z,53.34
2022-11-03T01:44:31.241Z,53.56
2022-11-03T01:47:28.008Z,53.56
2022-11-03T01:50:01.754Z,53.41
2022-11-03T01:52:41.449Z,53.33
2022-11-03T01:55:18.771Z,53.49
2022-11-03T01:58:14.094Z,53.69
2022-11-03T02:00:46.136Z,53.71
2022-11-03T02:03:15.782Z,53.88
2022-11-03T02:05:46.866Z,54.06
2022-11-03T02:08:36.784Z,53.88
2022-11-03T02:11:24.814Z,53.94
2022-11-03T02:13:53.230Z,54.20
2022-11-03T02:16:23.380Z,54.27
2022-11-03T02:18:54.107Z,54.20
2022-11-03T02:21:43.396Z,54.01
2022-11-03T02:24:11.360Z,54.38
2022-11-03T02:26:41.121Z,54.54
2022-11-03T02:29:09.208Z,54.55
2022-11-03T02:31:46.314Z,54.67
2022-11-03T02:34:32.491Z,54.44
2022-11-03T02:37:11.410Z,54.32
2022-11-03T02:40:12.336Z,54.46
2022-11-03T02:42:44.978Z,54.59
2022-11-03T02:45:17.980Z,54.91
2022-11-03T02:47:48.942Z,54.80
2022-11-03T02:50:17.987Z,54.55
2022-11-03T02:52:48.594Z,54.79
2022-11-03T02:55:39.374Z,54.46
2022-11-03T02:58:29.154Z,54.71
2022-11-03T03:01:48.436Z,54.21
2022-11-03T03:04:37.198Z,54.27
2022-11-03T03:07:41.526Z,54.28
2022-11-03T03:10:18.394Z,54.33
2022-11-03T03:12:55.566Z,53.97
2022-11-03T03:16:04.839Z,54.23
2022-11-03T03:18:49.219Z,54.03
2022-11-03T03:21:26.564Z,53.93
2022-11-03T03:24:02.686Z,53.82
2022-11-03T03:26:37.724Z,54.16
2022-11-03T03:29:25.465Z,53.81
2022-11-03T03:32:02.066Z,53.80
2022-11-03T03:34:35.139Z,54.05
2022-11-03T03:37:06.871Z,53.98
2022-11-03T03:39:40.264Z,54.00
2022-11-03T03:42:11.821Z,54.09
2022-11-03T03:44:42.307Z,53.92
2022-11-03T03:47:23.329Z,54.40
2022-11-03T03:49:51.523Z,54.25
2022-11-03T03:52:19.993Z,54.41
2022-11-03T03:54:48.077Z,54.21
2022-11-03T03:57:22.494Z,54.26
2022-11-03T03:59:52.037Z,54.55
2022-11-03T04:02:20.224Z,54.51
2022-11-03T04:04:48.551Z,54.75
2022-11-03T04:07:40.725Z,54.65
2022-11-03T04:10:11.850Z,54.69
2022-11-03T04:13:03.066Z,54.87
2022-11-03T04:15:51.091Z,54.96
2022-11-03T04:18:40.541Z,54.66
2022-11-03T04:21:32.740Z,54.46
2022-11-03T04:24:00.942Z,54.38
2022-11-03T04:26:30.318Z,54.17
2022-11-03T04:28:59.265Z,54.21
2022-11-03T04:31:28.644Z,54.16
2022-11-03T04:33:57.454Z,54.11
2022-11-03T04:36:26.754Z,54.22
2022-11-03T04:38:54.843Z,54.18
2022-11-03T04:41:28.805Z,54.42
2022-11-03T04:43:57.115Z,54.31
2022-11-03T04:46:29.891Z,54.05
2022-11-03T04:49:01.929Z,54.43
2022-11-03T04:51:34.938Z,54.25
2022-11-03T04:54:18.733Z,54.69
2022-11-03T04:56:46.788Z,54.62
2022-11-03T04:59:16.936Z,54.56
2022-11-03T05:01:46.645Z,54.51
2022-11-03T05:04:18.489Z,54.98
2022-11-03T05:06:55.677Z,54.60
2022-11-03T05:09:33.002Z,54.85
2022-11-03T05:12:01.084Z,54.47
2022-11-03T05:14:31.930Z,54.96
2022-11-03T05:17:02.772Z,54.71
2022-11-03T05:19:41.915Z,54.88
2022-11-03T05:22:22.477Z,55.06
2022-11-03T05:25:02.568Z,55.07
2022-11-03T05:27:30.979Z,54.87
2022-11-03T05:30:01.299Z,55.00
2022-11-03T05:32:33.509Z,55.32
2022-11-03T05:35:02.068Z,54.98
2022-11-03T05:37:35.550Z,55.55
2022-11-03T05:40:27.155Z,55.16
2022-11-03T05:43:01.245Z,55.45
2022-11-03T05:45:37.381Z,55.09
2022-11-03T05:48:32.084Z,54.92
2022-11-03T05:51:02.688Z,54.93
2022-11-03T05:53:39.406Z,54.87
2022-11-03T05:56:14.834Z,55.29
2022-11-03T05:58:44.569Z,54.65
2022-11-03T06:01:36.871Z,54.99
2022-11-03T06:04:26.963Z,54.74
2022-11-03T06:07:01.857Z,54.46
2022-11-03T06:09:32.125Z,55.07
2022-11-03T06:12:05.608Z,54.79
2022-11-03T06:14:34.144Z,54.79
2022-11-03T06:17:07.328Z,55.01
2022-11-03T06:19:42.550Z,54.76
2022-11-03T06:22:26.390Z,55.49
2022-11-03T06:25:31.305Z,54.96
2022-11-03T06:28:31.517Z,54.84
2022-11-03T06:30:59.986Z,55.01
2022-11-03T06:33:34.043Z,55.29
2022-11-03T06:36:13.547Z,55.07
2022-11-03T06:38:41.876Z,54.80
2022-11-03T06:41:26.375Z,55.13
2022-11-03T06:43:55.412Z,54.82
2022-11-03T06:46:26.639Z,55.11
2022-11-03T06:49:00.850Z,55.03
2022-11-03T06:51:30.967Z,54.92
2022-11-03T06:54:00.702Z,54.96
2022-11-03T06:56:35.408Z,54.74
2022-11-03T06:59:03.707Z,55.09
2022-11-03T07:01:35.535Z,54.81
2022-11-03T07:04:18.981Z,54.79
2022-11-03T07:06:53.501Z,54.72
2022-11-03T07:09:26.184Z,54.76
2022-11-03T07:11:59.760Z,54.72
2022-11-03T07:14:33.884Z,54.72
2022-11-03T07:17:05.763Z,54.78
2022-11-03T07:19:41.916Z,54.67
2022-11-03T07:22:27.158Z,54.54
2022-11-03T07:24:59.801Z,54.56
2022-11-03T07:27:31.698Z,54.46
2022-11-03T07:30:14.417Z,54.55
2022-11-03T07:32:42.623Z,54.60
2022-11-03T07:38:39.268Z,54.59
2022-11-03T07:41:12.652Z,54.55
2022-11-03T07:43:40.973Z,54.37
2022-11-03T07:46:16.983Z,54.52
2022-11-03T07:48:51.995Z,54.73
2022-11-03T07:51:30.999Z,54.78
2022-11-03T07:54:28.631Z,54.42
2022-11-03T07:56:57.645Z,54.56
2022-11-03T07:59:41.091Z,54.53
2022-11-03T08:02:24.117Z,54.42
2022-11-03T08:04:52.398Z,54.20
2022-11-03T08:07:20.602Z,54.58
2022-11-03T08:09:48.699Z,54.30
2022-11-03T08:12:16.738Z,54.26
2022-11-03T08:14:44.944Z,54.40
2022-11-03T08:17:14.704Z,54.02
2022-11-03T08:19:42.929Z,54.24
2022-11-03T08:22:10.988Z,54.03
2022-11-03T08:24:39.097Z,54.14
2022-11-03T08:27:07.153Z,53.90
2022-11-03T08:29:35.264Z,53.76
2022-11-03T08:32:03.810Z,53.87
2022-11-03T08:34:32.144Z,53.85
2022-11-03T08:37:01.067Z,53.63
2022-11-03T08:39:29.508Z,53.77
2022-11-03T08:41:58.211Z,53.61
2022-11-03T08:44:27.237Z,53.62
2022-11-03T08:46:57.584Z,53.54
2022-11-03T08:49:25.818Z,53.67
2022-11-03T08:51:53.856Z,53.68
2022-11-03T08:54:21.940Z,53.54
2022-11-03T08:56:50.179Z,53.58
2022-11-03T08:59:18.348Z,53.35
2022-11-03T09:01:46.994Z,53.34
2022-11-03T09:04:15.229Z,53.37
2022-11-03T09:06:43.343Z,53.40
2022-11-03T09:11:59.423Z,53.45
2022-11-03T09:14:27.840Z,53.41
2022-11-03T09:16:56.075Z,53.53
2022-11-03T09:19:24.147Z,53.51
2022-11-03T09:21:52.588Z,53.22
2022-11-03T09:24:20.675Z,53.41
2022-11-03T09:26:48.850Z,53.52
2022-11-03T09:29:17.291Z,53.48
2022-11-03T09:31:48.375Z,53.41
2022-11-03T09:34:16.484Z,53.37
2022-11-03T09:36:48.071Z,53.49
2022-11-03T09:39:18.865Z,53.28
2022-11-03T09:41:57.927Z,53.19
2022-11-03T09:44:27.773Z,53.29
2022-11-03T09:46:58.470Z,53.09
2022-11-03T09:49:28.256Z,53.16
2022-11-03T09:51:56.457Z,53.12
2022-11-03T09:54:25.022Z,53.01
2022-11-03T09:56:53.078Z,52.83
2022-11-03T09:59:23.721Z,52.75
2022-11-03T10:01:54.032Z,52.57
2022-11-03T10:04:32.589Z,52.31
2022-11-03T10:07:01.249Z,52.46
2022-11-03T10:09:30.173Z,52.65
2022-11-03T10:11:58.372Z,52.52
2022-11-03T10:14:26.577Z,52.24
2022-11-03T10:17:02.468Z,52.18
2022-11-03T10:19:33.781Z,52.05
2022-11-03T10:22:01.985Z,52.08
2022-11-03T10:24:30.088Z,51.93
2022-11-03T10:26:58.182Z,51.99
2022-11-03T10:29:28.286Z,51.49
2022-11-03T10:31:58.767Z,51.42
2022-11-03T10:34:41.237Z,51.58
2022-11-03T10:37:25.639Z,51.43
2022-11-03T10:40:01.064Z,51.33
2022-11-03T10:42:35.483Z,51.17
2022-11-03T10:45:20.634Z,51.36
2022-11-03T10:48:11.061Z,51.20
2022-11-03T10:50:43.076Z,51.12
2022-11-03T10:53:20.555Z,51.29
2022-11-03T10:55:55.669Z,51.18
2022-11-03T10:58:25.302Z,50.95
2022-11-03T11:00:53.633Z,50.96
2022-11-03T11:03:21.737Z,50.84
2022-11-03T11:05:50.025Z,51.02
2022-11-03T11:08:24.220Z,51.08
2022-11-03T11:10:54.112Z,50.75
2022-11-03T11:13:22.193Z,50.99
2022-11-03T11:16:01.706Z,51.02
2022-11-03T11:18:29.798Z,50.79
2022-11-03T11:21:24.157Z,50.78
2022-11-03T11:23:53.272Z,50.67
2022-11-03T11:26:27.728Z,50.62
2022-11-03T11:29:11.673Z,50.61
2022-11-03T11:31:44.172Z,50.29
2022-11-03T11:34:18.637Z,50.18
2022-11-03T11:36:55.964Z,50.17
2022-11-03T11:39:24.380Z,50.15
2022-11-03T11:42:07.428Z,50.23
2022-11-03T11:44:47.424Z,49.98
2022-11-03T11:47:47.788Z,49.95
2022-11-03T11:50:29.348Z,49.70
2022-11-03T11:53:20.100Z,49.51
2022-11-03T11:55:58.987Z,49.53
2022-11-03T11:58:49.379Z,49.79
2022-11-03T12:01:31.317Z,49.72
2022-11-03T12:06:50.455Z,49.41
2022-11-03T12:09:27.918Z,49.32
2022-11-03T12:12:07.968Z,49.38
2022-11-03T12:14:39.917Z,49.07
2022-11-03T12:17:19.977Z,49.00
2022-11-03T12:19:55.257Z,49.03
2022-11-03T12:22:32.342Z,49.20
2022-11-03T12:25:07.047Z,49.25
2022-11-03T12:27:35.346Z,48.94
2022-11-03T12:30:11.714Z,48.80
2022-11-03T12:32:40.150Z,48.65
2022-11-03T12:35:10.304Z,48.95
2022-11-03T12:37:38.714Z,48.72
2022-11-03T12:40:08.250Z,48.77
2022-11-03T12:42:36.324Z,48.69
2022-11-03T12:45:05.123Z,48.81
2022-11-03T12:47:33.210Z,48.94
2022-11-03T12:50:01.315Z,48.49
2022-11-03T12:52:29.493Z,48.71
2022-11-03T12:54:57.596Z,48.96
2022-11-03T12:57:25.683Z,48.99
2022-11-03T12:59:54.219Z,49.00
2022-11-03T13:02:22.457Z,48.78
2022-11-03T13:04:50.770Z,48.90
2022-11-03T13:07:25.596Z,48.90
2022-11-03T13:09:56.027Z,49.06
2022-11-03T13:12:33.138Z,48.64
2022-11-03T13:15:08.426Z,48.82
2022-11-03T13:17:59.357Z,48.95
2022-11-03T13:20:24.743Z,48.84
2022-11-03T13:22:52.801Z,48.70
2022-11-03T13:25:21.169Z,48.81
2022-11-03T13:27:54.137Z,48.55
2022-11-03T13:30:23.918Z,48.45
2022-11-03T13:32:52.092Z,48.73
2022-11-03T13:35:20.411Z,48.59
2022-11-03T13:37:48.494Z,48.52
2022-11-03T13:43:05.640Z,48.09
2022-11-03T13:45:34.462Z,48.35
2022-11-03T13:50:52.527Z,48.07
2022-11-03T13:56:13.146Z,48.22
2022-11-03T14:01:31.503Z,48.05
2022-11-03T14:06:47.804Z,48.43
2022-11-03T14:09:15.912Z,48.21
2022-11-03T14:12:02.715Z,47.94
2022-11-03T14:14:31.130Z,48.38
2022-11-03T14:16:59.215Z,48.66
2022-11-03T14:19:36.528Z,48.53
2022-11-03T14:22:07.763Z,48.45
2022-11-03T14:24:35.939Z,48.46
2022-11-03T14:27:04.759Z,48.58
2022-11-03T14:29:32.944Z,48.70
2022-11-03T14:32:01.626Z,48.53
2022-11-03T14:34:29.764Z,48.74
2022-11-03T14:36:57.978Z,48.99
2022-11-03T14:39:26.027Z,48.99
2022-11-03T14:42:03.551Z,49.10
2022-11-03T14:44:37.347Z,48.80
2022-11-03T14:47:09.562Z,48.92
2022-11-03T14:49:38.035Z,48.88
2022-11-03T14:52:07.570Z,48.79
2022-11-03T14:54:36.811Z,48.62
2022-11-03T14:57:05.853Z,48.91
2022-11-03T14:59:34.919Z,48.79
2022-11-03T15:02:04.148Z,48.93
2022-11-03T15:04:32.403Z,48.57
2022-11-03T15:07:00.701Z,48.77
2022-11-03T15:09:28.929Z,48.72
2022-11-03T15:11:57.013Z,48.57
2022-11-03T15:14:25.098Z,48.76
2022-11-03T15:16:53.151Z,48.77
2022-11-03T15:19:21.256Z,48.71
2022-11-03T15:21:49.315Z,48.66
2022-11-03T15:27:05.520Z,48.73
2022-11-03T15:29:33.635Z,48.66
2022-11-03T15:32:01.686Z,48.63
2022-11-03T15:34:30.263Z,48.75
2022-11-03T15:36:58.452Z,48.62
2022-11-03T15:39:29.810Z,48.69
2022-11-03T15:42:00.356Z,48.79
2022-11-03T15:44:28.723Z,48.56
2022-11-03T15:46:56.782Z,48.76
2022-11-03T15:49:24.983Z,48.74
2022-11-03T15:51:53.065Z,48.93
2022-11-03T15:54:21.176Z,48.89
2022-11-03T15:56:49.232Z,48.87
2022-11-03T15:59:17.582Z,48.90
2022-11-03T16:01:45.954Z,48.85
2022-11-03T16:04:16.289Z,48.57
2022-11-03T16:07:06.670Z,48.68
2022-11-03T16:09:32.562Z,48.56
2022-11-03T16:12:01.245Z,48.58
2022-11-03T16:14:30.480Z,48.29
2022-11-03T16:16:58.854Z,48.33
2022-11-03T16:19:26.957Z,48.37
2022-11-03T16:21:55.137Z,48.22
2022-11-03T16:24:24.830Z,48.36
2022-11-03T16:26:57.834Z,48.36
2022-11-03T16:29:26.016Z,48.48
2022-11-03T16:31:54.088Z,48.34
2022-11-03T16:34:22.387Z,48.37
2022-11-03T16:36:50.471Z,48.22
2022-11-03T16:39:18.580Z,48.40
2022-11-03T16:41:46.757Z,48.56
2022-11-03T16:44:14.861Z,48.51
2022-11-03T16:46:42.918Z,48.33
2022-11-03T16:49:11.029Z,48.43
2022-11-03T16:51:39.084Z,48.64
2022-11-03T16:54:07.672Z,48.39
2022-11-03T16:56:35.728Z,48.49
2022-11-03T16:59:04.173Z,48.75
2022-11-03T17:01:32.596Z,48.71
2022-11-03T17:04:00.820Z,48.64
2022-11-03T17:06:29.141Z,48.76
2022-11-03T17:08:57.271Z,48.74
2022-11-03T17:11:37.304Z,48.69
2022-11-03T17:14:08.990Z,48.38
2022-11-03T17:16:37.204Z,48.16
2022-11-03T17:19:05.297Z,48.13
2022-11-03T17:21:33.352Z,48.22
2022-11-03T17:24:01.675Z,48.26
2022-11-03T17:27:06.358Z,48.11
2022-11-03T17:29:55.801Z,48.13
2022-11-03T17:32:31.948Z,48.04
2022-11-03T17:35:00.033Z,47.91
2022-11-03T17:37:28.576Z,48.54
2022-11-03T17:39:57.151Z,48.07
2022-11-03T17:42:26.682Z,48.51
2022-11-03T17:44:57.058Z,48.63
2022-11-03T17:47:25.460Z,48.59
2022-11-03T17:49:53.565Z,48.50
2022-11-03T17:52:28.657Z,48.58
2022-11-03T17:54:59.066Z,48.69
2022-11-03T17:57:27.533Z,48.83
2022-11-03T17:59:59.309Z,48.18
2022-11-03T18:02:31.941Z,48.11
2022-11-03T18:05:15.384Z,48.11
2022-11-03T18:07:46.597Z,48.04
2022-11-03T18:10:14.920Z,48.29
2022-11-03T18:13:06.402Z,48.50
2022-11-03T18:15:37.125Z,48.44
2022-11-03T18:18:26.216Z,48.43
2022-11-03T18:20:54.651Z,48.56
2022-11-03T18:23:32.213Z,48.65
2022-11-03T18:26:03.536Z,48.80
2022-11-03T18:28:31.641Z,48.83
2022-11-03T18:30:59.705Z,48.98
2022-11-03T18:33:35.103Z,49.11
2022-11-03T18:36:06.544Z,48.91
2022-11-03T18:38:37.387Z,48.64
2022-11-03T18:41:28.389Z,49.02
2022-11-03T18:43:56.501Z,48.32
2022-11-03T18:46:24.555Z,48.79
2022-11-03T18:48:52.665Z,48.67
2022-11-03T18:51:20.720Z,48.86
2022-11-03T18:53:49.065Z,48.82
2022-11-03T18:56:20.278Z,49.09
2022-11-03T18:58:51.806Z,48.87
2022-11-03T19:01:24.189Z,48.90
2022-11-03T19:03:53.372Z,49.05
2022-11-03T19:06:21.574Z,48.93
2022-11-03T19:08:58.325Z,49.12
2022-11-03T19:11:27.246Z,49.52
2022-11-03T19:13:55.542Z,49.73
2022-11-03T19:16:24.854Z,49.33
2022-11-03T19:18:52.932Z,49.64
2022-11-03T19:21:26.388Z,49.52
2022-11-03T19:23:58.239Z,49.50
2022-11-03T19:26:39.714Z,49.56
2022-11-03T19:29:14.664Z,49.88
2022-11-03T19:31:47.639Z,49.87
2022-11-03T19:34:23.882Z,49.69
2022-11-03T19:36:52.444Z,49.95
2022-11-03T19:39:38.435Z,49.92
2022-11-03T19:42:29.426Z,49.73
2022-11-03T19:44:59.683Z,49.72
2022-11-03T19:47:33.000Z,49.96
2022-11-03T19:50:03.281Z,49.94
2022-11-03T19:52:32.807Z,50.21
2022-11-03T19:55:05.782Z,50.15
2022-11-03T19:57:33.892Z,50.13
2022-11-03T20:00:01.946Z,50.18
2022-11-03T20:02:35.684Z,50.09
2022-11-03T20:05:04.137Z,50.47
2022-11-03T20:07:32.341Z,50.84
2022-11-03T20:10:02.737Z,50.97
2022-11-03T20:12:31.387Z,51.65
2022-11-03T20:14:59.442Z,52.01
2022-11-03T20:17:27.549Z,52.08
2022-11-03T20:19:55.632Z,52.11
2022-11-03T20:22:29.713Z,52.15
2022-11-03T20:25:03.304Z,52.32
2022-11-03T20:27:32.597Z,52.17
2022-11-03T20:30:01.137Z,52.50
2022-11-03T20:32:29.126Z,52.66
2022-11-03T20:34:57.181Z,52.76
2022-11-03T20:37:25.263Z,52.73
2022-11-03T20:39:53.370Z,52.48
2022-11-03T20:42:25.748Z,53.02
2022-11-03T20:44:53.973Z,52.71
2022-11-03T20:47:22.033Z,52.59
2022-11-03T20:49:50.139Z,53.13
2022-11-03T20:52:18.587Z,52.89
2022-11-03T20:54:46.642Z,53.11
2022-11-03T20:57:14.841Z,53.08
2022-11-03T20:59:43.046Z,53.04
2022-11-03T21:02:13.373Z,53.08
2022-11-03T21:04:44.037Z,53.12
2022-11-03T21:07:13.441Z,53.18
2022-11-03T21:09:41.637Z,53.32
2022-11-03T21:12:14.450Z,53.98
2022-11-03T21:15:05.530Z,53.92
2022-11-03T21:17:52.195Z,54.54
2022-11-03T21:20:20.264Z,54.56
2022-11-03T21:22:53.328Z,54.94
2022-11-03T21:25:24.172Z,55.08
2022-11-03T21:27:54.458Z,55.11
2022-11-03T21:30:23.678Z,55.22
2022-11-03T21:32:51.836Z,55.04
2022-11-03T21:35:22.357Z,55.31
2022-11-03T21:37:50.670Z,55.16
2022-11-03T21:40:18.875Z,55.49
2022-11-03T21:43:05.672Z,55.53
2022-11-03T21:45:33.761Z,56.37
2022-11-03T21:48:21.329Z,56.49
2022-11-03T21:50:49.943Z,56.42
2022-11-03T21:53:18.045Z,56.71
2022-11-03T21:55:49.844Z,56.79
2022-11-03T21:58:17.934Z,56.67
2022-11-03T22:00:47.357Z,56.69
2022-11-03T22:03:15.650Z,56.09
2022-11-03T22:05:43.833Z,56.15
2022-11-03T22:08:12.182Z,55.76
2022-11-03T22:10:40.800Z,55.66
2022-11-03T22:13:09.565Z,55.47
2022-11-03T22:15:56.589Z,55.76
2022-11-03T22:18:24.666Z,55.48
2022-11-03T22:21:11.205Z,55.26
2022-11-03T22:23:57.768Z,55.32
2022-11-03T22:26:44.239Z,55.54
2022-11-03T22:29:30.893Z,55.51
2022-11-03T22:31:58.976Z,55.41
2022-11-03T22:34:45.539Z,55.32
2022-11-03T22:37:13.621Z,55.17
2022-11-03T22:40:00.548Z,54.74
2022-11-03T22:42:46.919Z,54.71
2022-11-03T22:45:33.547Z,54.47
2022-11-03T22:48:05.713Z,54.47
2022-11-03T22:50:33.940Z,54.22
2022-11-03T22:53:21.946Z,54.47
2022-11-03T22:55:50.000Z,54.41
2022-11-03T22:58:18.441Z,53.93
2022-11-03T23:00:47.748Z,53.84
2022-11-03T23:03:15.949Z,53.88
2022-11-03T23:05:44.008Z,53.58
2022-11-03T23:08:12.224Z,53.59
2022-11-03T23:10:40.293Z,53.44
2022-11-03T23:13:08.617Z,53.55
2022-11-03T23:15:43.576Z,53.83
2022-11-03T23:18:30.025Z,53.73
2022-11-03T23:21:07.187Z,53.71
2022-11-03T23:23:58.215Z,53.64
2022-11-03T23:26:27.474Z,54.15
2022-11-03T23:28:55.697Z,54.39
2022-11-03T23:31:23.781Z,53.86
2022-11-03T23:33:52.017Z,53.57
2022-11-03T23:36:20.042Z,53.60
2022-11-03T23:38:48.241Z,53.44
2022-11-03T23:41:18.844Z,53.38
2022-11-03T23:43:47.766Z,53.35
2022-11-03T23:46:41.915Z,53.20
2022-11-03T23:49:10.836Z,53.05
2022-11-03T23:51:39.374Z,53.08
2022-11-03T23:54:10.122Z,53.10
2022-11-03T23:57:02.899Z,52.98
2022-11-03T23:59:32.835Z,52.96
